createdAt,value
2018-02-23T00:04:25.380Z,15.63
2018-02-23T00:09:27.131Z,17.80
2018-02-23T00:14:28.148Z,18.40
2018-02-23T00:19:29.164Z,16.20
2018-02-23T00:24:30.160Z,19.30
2018-02-23T00:29:31.160Z,18.27
2018-02-23T00:34:32.171Z,12.03
2018-02-23T00:39:33.184Z,22.80
2018-02-23T00:44:34.918Z,6.70
2018-02-23T00:49:35.919Z,21.40
2018-02-23T00:54:36.956Z,22.57
2018-02-23T00:59:38.691Z,10.60
2018-02-23T01:04:39.684Z,15.73
2018-02-23T01:09:40.669Z,18.30
2018-02-23T01:14:41.672Z,16.73
2018-02-23T01:19:42.721Z,19.43
2018-02-23T01:24:43.748Z,17.10
2018-02-23T01:29:45.524Z,20.03
2018-02-23T01:34:46.520Z,20.57
2018-02-23T01:39:47.531Z,12.00
2018-02-23T01:44:49.259Z,15.37
2018-02-23T01:49:50.252Z,23.73
2018-02-23T01:54:51.255Z,19.33
2018-02-23T01:59:52.261Z,26.43
2018-02-23T02:04:53.272Z,23.27
2018-02-23T02:09:54.280Z,20.70
2018-02-23T02:14:55.279Z,17.10
2018-02-23T02:19:56.272Z,21.10
2018-02-23T02:24:57.263Z,19.93
2018-02-23T02:29:58.281Z,21.90
2018-02-23T02:35:00.076Z,20.43
2018-02-23T02:40:01.085Z,19.17
2018-02-23T02:45:02.100Z,20.03
2018-02-23T02:50:03.117Z,18.47
2018-02-23T02:55:04.128Z,20.40
2018-02-23T03:00:05.189Z,20.60
2018-02-23T03:05:06.940Z,17.67
2018-02-23T03:10:07.949Z,12.10
2018-02-23T03:15:08.951Z,14.67
2018-02-23T03:20:10.687Z,24.07
2018-02-23T03:25:11.704Z,16.23
2018-02-23T03:30:12.719Z,17.40
2018-02-23T03:35:14.455Z,21.57
2018-02-23T03:40:15.463Z,17.33
2018-02-23T03:45:16.467Z,22.07
2018-02-23T03:50:17.472Z,21.40
2018-02-23T03:55:18.495Z,17.63
2018-02-23T04:00:19.511Z,18.37
2018-02-23T04:05:20.557Z,18.13
2018-02-23T04:10:22.280Z,24.00
2018-02-23T04:15:23.296Z,19.87
2018-02-23T04:20:24.301Z,18.43
2018-02-23T04:25:25.303Z,18.03
2018-02-23T04:30:26.307Z,17.30
2018-02-23T04:35:28.079Z,23.10
2018-02-23T04:40:29.123Z,22.47
2018-02-23T04:45:30.878Z,16.50
2018-02-23T04:50:31.884Z,45.00
2018-02-23T04:55:32.893Z,21.80
2018-02-23T05:00:34.648Z,17.60
2018-02-23T05:05:35.671Z,23.20
2018-02-23T05:10:36.692Z,19.77
2018-02-23T05:15:37.696Z,24.67
2018-02-23T05:20:38.695Z,18.53
2018-02-23T05:25:39.709Z,6.20
2018-02-23T05:30:41.608Z,21.77
2018-02-23T05:35:42.652Z,22.37
2018-02-23T05:40:43.644Z,20.90
2018-02-23T05:45:44.648Z,23.40
2018-02-23T05:50:45.677Z,21.07
2018-02-23T05:55:46.627Z,19.50
2018-02-23T06:00:48.358Z,16.97
2018-02-23T06:05:49.361Z,22.20
2018-02-23T06:10:50.347Z,21.30
2018-02-23T06:15:57.583Z,20.73
2018-02-23T06:20:58.588Z,21.87
2018-02-23T06:25:59.597Z,35.80
2018-02-23T06:31:01.332Z,23.57
2018-02-23T06:36:02.335Z,29.53
2018-02-23T06:41:03.352Z,19.63
2018-02-23T06:46:04.343Z,23.40
2018-02-23T06:51:06.093Z,24.07
2018-02-23T06:56:07.091Z,28.40
2018-02-23T07:01:08.138Z,28.50
2018-02-23T07:06:09.136Z,26.57
2018-02-23T07:11:10.168Z,30.40
2018-02-23T07:16:11.132Z,32.33
2018-02-23T08:45:43.252Z,25.57
2018-02-23T08:50:45.104Z,28.00
2018-02-23T08:55:46.174Z,30.50
2018-02-23T09:00:47.136Z,29.37
2018-02-23T09:05:48.872Z,28.50
2018-02-23T09:16:18.720Z,33.37
2018-02-23T09:21:20.148Z,32.20
2018-02-23T09:26:21.196Z,29.67
2018-02-23T09:31:22.175Z,31.77
2018-02-23T09:36:23.188Z,35.77
2018-02-23T09:41:24.947Z,32.37
2018-02-23T09:46:25.947Z,29.20
2018-02-23T09:51:27.611Z,31.50
2018-02-23T09:56:28.668Z,26.27
2018-02-23T10:01:30.403Z,30.67
2018-02-23T10:06:31.401Z,30.60
2018-02-23T10:11:32.436Z,35.67
2018-02-23T10:16:33.444Z,31.50
2018-02-23T10:21:34.447Z,34.20
2018-02-23T10:26:35.457Z,39.73
2018-02-23T10:31:37.243Z,31.20
2018-02-23T10:36:38.243Z,42.03
2018-02-23T10:41:39.981Z,37.97
2018-02-23T10:52:10.531Z,33.03
2018-02-23T10:57:11.556Z,34.30
2018-02-23T11:02:13.316Z,23.03
2018-02-23T11:07:14.328Z,25.83
2018-02-23T11:12:15.360Z,32.27
2018-02-23T11:17:16.379Z,33.40
2018-02-23T11:22:17.400Z,26.50
2018-02-23T11:27:19.128Z,24.40
2018-02-23T11:32:20.136Z,29.87
2018-02-23T11:37:21.143Z,16.70
2018-02-23T11:42:22.176Z,30.97
2018-02-23T11:47:23.195Z,30.97
2018-02-23T11:52:24.211Z,35.87
2018-02-23T12:03:02.619Z,28.67
2018-02-23T12:08:03.615Z,32.20
2018-02-23T12:13:20.292Z,34.07
2018-02-23T12:18:21.300Z,22.97
2018-02-23T12:23:22.295Z,29.00
2018-02-23T12:28:23.474Z,29.80
2018-02-23T12:33:24.463Z,25.80
2018-02-23T12:38:25.471Z,28.17
2018-02-23T12:43:27.049Z,26.93
2018-02-23T12:48:28.048Z,24.10
2018-02-23T12:53:29.056Z,24.27
2018-02-23T12:58:30.800Z,21.77
2018-02-23T13:03:31.810Z,20.23
2018-02-23T13:08:32.811Z,20.57
2018-02-23T13:13:34.555Z,26.23
2018-02-23T13:18:35.555Z,26.70
2018-02-23T13:23:36.564Z,22.77
2018-02-23T13:28:43.768Z,30.77
2018-02-23T13:33:44.779Z,32.60
2018-02-23T13:38:45.775Z,28.90
2018-02-23T13:43:47.500Z,24.37
2018-02-23T13:48:48.520Z,26.80
2018-02-23T13:53:49.547Z,25.77
2018-02-23T13:58:51.283Z,27.53
2018-02-23T14:03:52.307Z,28.77
2018-02-23T14:08:53.295Z,25.90
2018-02-23T14:13:54.284Z,29.23
2018-02-23T14:18:56.021Z,25.50
2018-02-23T14:23:57.015Z,26.70
2018-02-23T14:28:58.011Z,26.97
2018-02-23T14:33:58.995Z,28.57
2018-02-23T14:38:59.996Z,29.27
2018-02-23T14:44:00.988Z,27.27
2018-02-23T14:49:14.952Z,30.20
2018-02-23T14:54:15.957Z,22.13
2018-02-23T14:59:16.966Z,28.87
2018-02-23T15:04:18.021Z,31.63
2018-02-23T15:09:18.987Z,29.20
2018-02-23T15:14:20.272Z,30.87
2018-02-23T15:19:21.264Z,28.53
2018-02-23T15:24:22.261Z,30.13
2018-02-23T15:29:23.265Z,37.23
2018-02-23T15:34:25.004Z,31.07
2018-02-23T15:39:26.014Z,28.73
2018-02-23T15:44:27.009Z,31.10
2018-02-23T15:49:34.171Z,33.00
2018-02-23T15:54:35.192Z,27.90
2018-02-23T15:59:36.203Z,32.40
2018-02-23T16:04:37.211Z,30.27
2018-02-23T16:09:38.204Z,33.80
2018-02-23T16:14:39.219Z,31.20
2018-02-23T16:19:40.246Z,19.20
2018-02-23T16:24:41.276Z,30.83
2018-02-23T16:29:42.292Z,26.87
2018-02-23T16:34:43.300Z,27.70
2018-02-23T16:39:45.040Z,21.77
2018-02-23T16:44:46.030Z,32.10
2018-02-23T16:49:47.053Z,34.23
2018-02-23T16:54:48.787Z,29.63
2018-02-23T16:59:49.786Z,29.00
2018-02-23T17:04:50.799Z,28.20
2018-02-23T17:09:51.815Z,29.67
2018-02-23T17:14:53.567Z,26.80
2018-02-23T17:19:54.571Z,29.97
2018-02-23T17:24:55.591Z,68.77
2018-02-23T17:29:56.576Z,28.43
2018-02-23T17:34:57.575Z,36.80
2018-02-23T17:39:58.614Z,31.33
2018-02-23T17:45:00.364Z,32.40
2018-02-23T17:50:01.384Z,23.50
2018-02-23T17:55:02.376Z,29.83
2018-02-23T18:00:03.376Z,28.47
2018-02-23T18:05:05.107Z,28.43
2018-02-23T18:10:06.088Z,29.97
2018-02-23T18:15:07.076Z,19.47
2018-02-23T18:20:08.131Z,28.27
2018-02-23T18:25:09.124Z,29.20
2018-02-23T18:30:10.117Z,30.17
2018-02-23T18:35:11.333Z,33.60
2018-02-23T18:40:12.308Z,31.10
2018-02-23T18:45:13.306Z,31.30
2018-02-23T18:50:14.295Z,29.77
2018-02-23T18:55:15.276Z,28.77
2018-02-23T19:00:16.259Z,32.60
2018-02-23T19:05:17.271Z,30.43
2018-02-23T19:10:18.275Z,22.40
2018-02-23T19:15:20.094Z,35.63
2018-02-23T19:20:21.086Z,40.47
2018-02-23T19:25:22.327Z,44.90
2018-02-23T19:30:23.441Z,49.97
2018-02-23T19:35:24.440Z,42.00
2018-02-23T19:40:25.461Z,51.73
2018-02-23T19:45:27.204Z,35.47
2018-02-23T19:50:28.210Z,32.87
2018-02-23T19:55:29.220Z,60.80
2018-02-23T20:00:30.208Z,46.03
2018-02-23T20:05:32.165Z,34.73
2018-02-23T20:10:33.360Z,36.13
2018-02-23T20:15:35.556Z,35.00
2018-02-23T20:20:36.700Z,33.23
2018-02-23T20:25:38.010Z,35.10
2018-02-23T20:30:39.227Z,31.37
2018-02-23T20:35:40.368Z,37.43
2018-02-23T20:40:41.520Z,38.40
2018-02-23T20:45:42.634Z,42.10
2018-02-23T20:50:43.666Z,62.17
2018-02-23T20:55:44.936Z,44.90
2018-02-23T21:00:46.248Z,49.20
2018-02-23T21:05:47.296Z,49.77
2018-02-23T21:10:49.039Z,40.00
2018-02-23T21:15:50.271Z,40.83
2018-02-23T21:20:51.316Z,45.70
2018-02-23T21:25:52.632Z,24.97
2018-02-23T21:30:53.711Z,45.80
2018-02-23T21:35:54.711Z,39.20
2018-02-23T21:40:56.452Z,44.20
2018-02-23T21:45:57.458Z,40.13
2018-02-23T21:50:58.472Z,43.10
2018-02-23T21:55:59.464Z,33.83
2018-02-23T22:01:01.212Z,50.60
2018-02-23T22:06:02.216Z,31.20
2018-02-23T22:11:03.227Z,44.30
2018-02-23T22:16:04.954Z,34.70
2018-02-23T22:21:05.947Z,43.57
2018-02-23T22:26:06.935Z,43.17
2018-02-23T22:31:07.914Z,35.43
2018-02-23T22:36:08.924Z,41.60
2018-02-23T22:41:09.924Z,45.07
2018-02-23T22:46:11.663Z,42.67
2018-02-23T22:51:12.667Z,38.93
2018-02-23T22:56:13.665Z,41.50
2018-02-23T23:01:14.660Z,39.70
2018-02-23T23:06:15.671Z,38.70
2018-02-23T23:11:17.422Z,39.83
2018-02-23T23:16:18.419Z,43.57
2018-02-23T23:21:19.436Z,52.90
2018-02-23T23:26:21.171Z,43.67
2018-02-23T23:31:22.181Z,40.90
2018-02-23T23:36:23.184Z,42.63
2018-02-23T23:41:24.191Z,45.37
2018-02-23T23:46:25.951Z,38.93
2018-02-23T23:51:26.931Z,38.00
2018-02-23T23:56:27.937Z,44.50
